PRIVATE WETTERSTATION BILLIGHEIM-ALLFELD                       ZURCK
Wetterdaten: Montag, 15.09.2014
Datum Zeit Temp. A. Temp. A. min Temp. A. max Feuchte A. Luftdruck Regen Wind Richtung Richtung Sonnenschein ET Solar Taupunkt Windchill Windben Empfang
15.09.2014 00:00 12,8 C 12,8 C 12,8 C 90 % 1016,5 hPa 0,0 l/m 0,0 km/h (0 Bft) N 0 0 min 0,000 mm 0 W/m 11,2 C 12,8 C 0,0 km/h (0 Bft) 100 %
15.09.2014 00:10 12,8 C 12,7 C 12,8 C 90 % 1016,5 hPa 0,0 l/m 0,0 km/h (0 Bft) N 0 0 min 0,000 mm 0 W/m 11,2 C 12,8 C 0,0 km/h (0 Bft) 100 %
15.09.2014 00:20 12,7 C 12,7 C 12,8 C 90 % 1016,5 hPa 0,0 l/m 1,6 km/h (1 Bft) N-NO 22 0 min 0,000 mm 0 W/m 11,1 C 12,7 C 3,2 km/h (1 Bft) 100 %
15.09.2014 00:30 12,5 C 12,5 C 12,7 C 90 % 1016,4 hPa 0,0 l/m 0,0 km/h (0 Bft) N-NO 22 0 min 0,000 mm 0 W/m 10,9 C 12,5 C 1,6 km/h (1 Bft) 100 %
15.09.2014 00:40 12,6 C 12,5 C 12,6 C 90 % 1016,3 hPa 0,0 l/m 0,0 km/h (0 Bft) N 0 0 min 0,000 mm 0 W/m 11,0 C 12,6 C 0,0 km/h (0 Bft) 100 %
15.09.2014 00:50 12,6 C 12,5 C 12,6 C 90 % 1016,3 hPa 0,0 l/m 0,0 km/h (0 Bft) N-NO 22 0 min 0,000 mm 0 W/m 11,0 C 12,6 C 1,6 km/h (1 Bft) 100 %
15.09.2014 01:00 12,7 C 12,6 C 12,7 C 90 % 1016,4 hPa 0,0 l/m 0,0 km/h (0 Bft) N 0 0 min 0,000 mm 0 W/m 11,1 C 12,7 C 0,0 km/h (0 Bft) 100 %
15.09.2014 01:10 12,8 C 12,7 C 12,8 C 90 % 1016,3 hPa 0,0 l/m 0,0 km/h (0 Bft) N 0 0 min 0,000 mm 0 W/m 11,2 C 12,8 C 0,0 km/h (0 Bft) 100 %
15.09.2014 01:20 12,9 C 12,8 C 12,9 C 90 % 1016,4 hPa 0,0 l/m 0,0 km/h (0 Bft) N-NO 22 0 min 0,000 mm 0 W/m 11,3 C 12,9 C 3,2 km/h (1 Bft) 100 %
15.09.2014 01:30 13,0 C 12,9 C 13,0 C 90 % 1016,4 hPa 0,0 l/m 0,0 km/h (0 Bft) N 0 0 min 0,000 mm 0 W/m 11,4 C 13,0 C 0,0 km/h (0 Bft) 100 %
15.09.2014 01:40 13,0 C 13,0 C 13,0 C 90 % 1016,3 hPa 0,0 l/m 0,0 km/h (0 Bft) N 0 0 min 0,000 mm 0 W/m 11,4 C 13,0 C 0,0 km/h (0 Bft) 100 %
15.09.2014 01:50 13,1 C 13,0 C 13,1 C 90 % 1016,2 hPa 0,0 l/m 0,0 km/h (0 Bft) N 0 0 min 0,000 mm 0 W/m 11,5 C 13,1 C 0,0 km/h (0 Bft) 99 %
15.09.2014 02:00 13,1 C 13,1 C 13,1 C 90 % 1016,2 hPa 0,0 l/m 0,0 km/h (0 Bft) N-NO 22 0 min 0,000 mm 0 W/m 11,5 C 13,1 C 3,2 km/h (1 Bft) 89 %
15.09.2014 02:10 13,1 C 13,1 C 13,1 C 90 % 1016,1 hPa 0,0 l/m 1,6 km/h (1 Bft) N-NO 22 0 min 0,000 mm 0 W/m 11,5 C 13,1 C 3,2 km/h (1 Bft) 99 %
15.09.2014 02:20 13,1 C 13,1 C 13,1 C 90 % 1016,1 hPa 0,0 l/m 0,0 km/h (0 Bft) N-NO 22 0 min 0,000 mm 0 W/m 11,5 C 13,1 C 1,6 km/h (1 Bft) 100 %
15.09.2014 02:30 13,1 C 13,1 C 13,1 C 90 % 1016,1 hPa 0,0 l/m 1,6 km/h (1 Bft) N-NO 22 0 min 0,000 mm 0 W/m 11,5 C 13,1 C 3,2 km/h (1 Bft) 100 %
15.09.2014 02:40 13,2 C 13,1 C 13,2 C 90 % 1016,0 hPa 0,0 l/m 0,0 km/h (0 Bft) N-NO 22 0 min 0,000 mm 0 W/m 11,6 C 13,2 C 1,6 km/h (1 Bft) 100 %
15.09.2014 02:50 13,2 C 13,1 C 13,2 C 90 % 1015,9 hPa 0,0 l/m 0,0 km/h (0 Bft) N-NO 22 0 min 0,000 mm 0 W/m 11,6 C 13,2 C 1,6 km/h (1 Bft) 100 %
15.09.2014 03:00 13,3 C 13,2 C 13,3 C 90 % 1015,8 hPa 0,0 l/m 0,0 km/h (0 Bft) N 0 0 min 0,000 mm 0 W/m 11,7 C 13,3 C 0,0 km/h (0 Bft) 99 %
15.09.2014 03:10 13,4 C 13,3 C 13,4 C 89 % 1015,8 hPa 0,0 l/m 0,0 km/h (0 Bft) N-NO 22 0 min 0,000 mm 0 W/m 11,6 C 13,4 C 1,6 km/h (1 Bft) 100 %
15.09.2014 03:20 13,7 C 13,4 C 13,7 C 90 % 1015,7 hPa 0,0 l/m 0,0 km/h (0 Bft) N 0 0 min 0,000 mm 0 W/m 12,1 C 13,7 C 0,0 km/h (0 Bft) 100 %
15.09.2014 03:30 13,8 C 13,7 C 13,8 C 89 % 1015,7 hPa 0,0 l/m 0,0 km/h (0 Bft) N 0 0 min 0,000 mm 0 W/m 12,0 C 13,8 C 0,0 km/h (0 Bft) 100 %
15.09.2014 03:40 13,9 C 13,8 C 13,9 C 89 % 1015,8 hPa 0,0 l/m 0,0 km/h (0 Bft) NW 315 0 min 0,000 mm 0 W/m 12,1 C 13,9 C 3,2 km/h (1 Bft) 99 %
15.09.2014 03:50 14,0 C 13,9 C 14,0 C 90 % 1015,8 hPa 0,0 l/m 0,0 km/h (0 Bft) NW 315 0 min 0,000 mm 0 W/m 12,4 C 14,0 C 4,8 km/h (1 Bft) 100 %
15.09.2014 04:00 14,0 C 14,0 C 14,0 C 90 % 1015,8 hPa 0,0 l/m 0,0 km/h (0 Bft) N 360 0 min 0,000 mm 0 W/m 12,4 C 14,0 C 3,2 km/h (1 Bft) 100 %
15.09.2014 04:10 14,0 C 14,0 C 14,1 C 90 % 1015,7 hPa 0,0 l/m 0,0 km/h (0 Bft) N 360 0 min 0,000 mm 0 W/m 12,4 C 14,0 C 1,6 km/h (1 Bft) 100 %
15.09.2014 04:20 14,0 C 14,0 C 14,1 C 90 % 1015,7 hPa 0,0 l/m 0,0 km/h (0 Bft) N-NW 337 0 min 0,000 mm 0 W/m 12,4 C 14,0 C 4,8 km/h (1 Bft) 100 %
15.09.2014 04:30 14,0 C 14,0 C 14,1 C 90 % 1015,6 hPa 0,0 l/m 0,0 km/h (0 Bft) N-NW 337 0 min 0,000 mm 0 W/m 12,4 C 14,0 C 3,2 km/h (1 Bft) 100 %
15.09.2014 04:40 14,1 C 14,0 C 14,1 C 90 % 1015,6 hPa 0,0 l/m 0,0 km/h (0 Bft) N-NW 337 0 min 0,000 mm 0 W/m 12,5 C 14,1 C 1,6 km/h (1 Bft) 100 %
15.09.2014 04:50 14,1 C 14,1 C 14,1 C 90 % 1015,7 hPa 0,0 l/m 0,0 km/h (0 Bft) N-NO 22 0 min 0,000 mm 0 W/m 12,5 C 14,1 C 4,8 km/h (1 Bft) 100 %
15.09.2014 05:00 14,1 C 14,1 C 14,1 C 90 % 1015,5 hPa 0,0 l/m 0,0 km/h (0 Bft) N-NO 22 0 min 0,000 mm 0 W/m 12,5 C 14,1 C 1,6 km/h (1 Bft) 100 %
15.09.2014 05:10 14,1 C 14,1 C 14,1 C 90 % 1015,6 hPa 0,0 l/m 0,0 km/h (0 Bft) N-NO 22 0 min 0,000 mm 0 W/m 12,5 C 14,1 C 3,2 km/h (1 Bft) 100 %
15.09.2014 05:20 14,1 C 14,1 C 14,2 C 90 % 1015,5 hPa 0,0 l/m 0,0 km/h (0 Bft) N-NO 22 0 min 0,000 mm 0 W/m 12,5 C 14,1 C 1,6 km/h (1 Bft) 100 %
15.09.2014 05:30 14,2 C 14,1 C 14,2 C 90 % 1015,5 hPa 0,0 l/m 0,0 km/h (0 Bft) N-NO 22 0 min 0,000 mm 0 W/m 12,6 C 14,2 C 3,2 km/h (1 Bft) 100 %
15.09.2014 05:40 14,2 C 14,2 C 14,2 C 90 % 1015,5 hPa 0,0 l/m 0,0 km/h (0 Bft) N-NW 337 0 min 0,000 mm 0 W/m 12,6 C 14,2 C 3,2 km/h (1 Bft) 100 %
15.09.2014 05:50 14,2 C 14,2 C 14,2 C 90 % 1015,5 hPa 0,0 l/m 0,0 km/h (0 Bft) N-NO 22 0 min 0,000 mm 0 W/m 12,6 C 14,2 C 3,2 km/h (1 Bft) 100 %
15.09.2014 06:00 14,2 C 14,2 C 14,2 C 90 % 1015,5 hPa 0,0 l/m 0,0 km/h (0 Bft) NO 45 0 min 0,000 mm 0 W/m 12,6 C 14,2 C 4,8 km/h (1 Bft) 99 %
15.09.2014 06:10 14,2 C 14,2 C 14,2 C 90 % 1015,5 hPa 0,0 l/m 0,0 km/h (0 Bft) N-NO 22 0 min 0,000 mm 0 W/m 12,6 C 14,2 C 1,6 km/h (1 Bft) 100 %
15.09.2014 06:20 14,2 C 14,2 C 14,2 C 90 % 1015,5 hPa 0,0 l/m 0,0 km/h (0 Bft) O-NO 67 0 min 0,000 mm 0 W/m 12,6 C 14,2 C 1,6 km/h (1 Bft) 100 %
15.09.2014 06:30 14,2 C 14,2 C 14,2 C 90 % 1015,5 hPa 0,0 l/m 0,0 km/h (0 Bft) O-NO 67 0 min 0,000 mm 0 W/m 12,6 C 14,2 C 3,2 km/h (1 Bft) 100 %
15.09.2014 06:40 14,2 C 14,2 C 14,2 C 90 % 1015,4 hPa 0,0 l/m 0,0 km/h (0 Bft) N 360 0 min 0,000 mm 0 W/m 12,6 C 14,2 C 4,8 km/h (1 Bft) 100 %
15.09.2014 06:50 14,2 C 14,2 C 14,2 C 90 % 1015,5 hPa 0,0 l/m 0,0 km/h (0 Bft) NO 45 0 min 0,000 mm 0 W/m 12,6 C 14,2 C 1,6 km/h (1 Bft) 100 %
15.09.2014 07:00 14,2 C 14,2 C 14,2 C 90 % 1015,5 hPa 0,0 l/m 0,0 km/h (0 Bft) N-NO 22 0 min 0,000 mm 0 W/m 12,6 C 14,2 C 3,2 km/h (1 Bft) 100 %
15.09.2014 07:10 14,2 C 14,2 C 14,2 C 90 % 1015,5 hPa 0,0 l/m 0,0 km/h (0 Bft) O-NO 67 0 min 0,000 mm 5 W/m 12,6 C 14,2 C 1,6 km/h (1 Bft) 100 %
15.09.2014 07:20 14,2 C 14,2 C 14,3 C 90 % 1015,5 hPa 0,0 l/m 0,0 km/h (0 Bft) NO 45 0 min 0,000 mm 11 W/m 12,6 C 14,2 C 1,6 km/h (1 Bft) 100 %
15.09.2014 07:30 14,3 C 14,2 C 14,3 C 90 % 1015,5 hPa 0,0 l/m 0,0 km/h (0 Bft) N 0 0 min 0,000 mm 18 W/m 12,7 C 14,3 C 0,0 km/h (0 Bft) 100 %
15.09.2014 07:40 14,3 C 14,3 C 14,3 C 90 % 1015,6 hPa 0,0 l/m 0,0 km/h (0 Bft) N 0 0 min 0,000 mm 21 W/m 12,7 C 14,3 C 0,0 km/h (0 Bft) 100 %
15.09.2014 07:50 14,4 C 14,3 C 14,4 C 90 % 1015,6 hPa 0,0 l/m 0,0 km/h (0 Bft) N 0 0 min 0,000 mm 37 W/m 12,8 C 14,4 C 0,0 km/h (0 Bft) 100 %
15.09.2014 08:00 14,5 C 14,4 C 14,5 C 90 % 1015,6 hPa 0,0 l/m 0,0 km/h (0 Bft) N 0 0 min 0,000 mm 47 W/m 12,9 C 14,5 C 0,0 km/h (0 Bft) 100 %
15.09.2014 08:10 14,6 C 14,5 C 14,6 C 90 % 1015,5 hPa 0,0 l/m 0,0 km/h (0 Bft) N 0 0 min 0,000 mm 49 W/m 13,0 C 14,6 C 0,0 km/h (0 Bft) 100 %
15.09.2014 08:20 14,7 C 14,6 C 14,7 C 90 % 1015,5 hPa 0,0 l/m 0,0 km/h (0 Bft) N 0 0 min 0,000 mm 58 W/m 13,1 C 14,7 C 0,0 km/h (0 Bft) 100 %
15.09.2014 08:30 14,8 C 14,7 C 14,8 C 90 % 1015,4 hPa 0,0 l/m 0,0 km/h (0 Bft) N 0 0 min 0,000 mm 72 W/m 13,2 C 14,8 C 0,0 km/h (0 Bft) 100 %
15.09.2014 08:40 15,1 C 14,8 C 15,1 C 90 % 1015,3 hPa 0,0 l/m 0,0 km/h (0 Bft) NO 45 0 min 0,000 mm 72 W/m 13,5 C 15,1 C 3,2 km/h (1 Bft) 100 %
15.09.2014 08:50 15,1 C 15,1 C 15,1 C 90 % 1015,4 hPa 0,0 l/m 0,0 km/h (0 Bft) O-NO 67 0 min 0,000 mm 81 W/m 13,5 C 15,1 C 3,2 km/h (1 Bft) 100 %
15.09.2014 09:00 15,1 C 15,1 C 15,1 C 90 % 1015,6 hPa 0,0 l/m 0,0 km/h (0 Bft) O-NO 67 0 min 0,025 mm 88 W/m 13,5 C 15,1 C 3,2 km/h (1 Bft) 100 %
15.09.2014 09:10 15,3 C 15,1 C 15,3 C 90 % 1015,5 hPa 0,0 l/m 0,0 km/h (0 Bft) O-NO 67 0 min 0,000 mm 102 W/m 13,7 C 15,3 C 4,8 km/h (1 Bft) 100 %
15.09.2014 09:20 15,5 C 15,3 C 15,5 C 90 % 1015,5 hPa 0,0 l/m 0,0 km/h (0 Bft) O-SO 112 0 min 0,000 mm 113 W/m 13,9 C 15,5 C 4,8 km/h (1 Bft) 100 %
15.09.2014 09:30 15,7 C 15,5 C 15,7 C 90 % 1015,6 hPa 0,0 l/m 0,0 km/h (0 Bft) O-NO 67 0 min 0,000 mm 109 W/m 14,1 C 15,7 C 1,6 km/h (1 Bft) 100 %
15.09.2014 09:40 15,9 C 15,7 C 15,9 C 90 % 1015,7 hPa 0,0 l/m 0,0 km/h (0 Bft) O-NO 67 0 min 0,000 mm 118 W/m 14,3 C 15,9 C 1,6 km/h (1 Bft) 100 %
15.09.2014 09:50 16,0 C 15,9 C 16,0 C 90 % 1015,8 hPa 0,0 l/m 0,0 km/h (0 Bft) O-NO 67 0 min 0,000 mm 113 W/m 14,4 C 16,0 C 4,8 km/h (1 Bft) 100 %
15.09.2014 10:00 16,1 C 16,0 C 16,1 C 90 % 1015,8 hPa 0,0 l/m 0,0 km/h (0 Bft) SO 135 0 min 0,051 mm 111 W/m 14,5 C 16,1 C 1,6 km/h (1 Bft) 100 %
15.09.2014 10:10 16,3 C 16,1 C 16,3 C 90 % 1015,9 hPa 0,0 l/m 0,0 km/h (0 Bft) SO 135 0 min 0,000 mm 141 W/m 14,7 C 16,3 C 1,6 km/h (1 Bft) 100 %
15.09.2014 10:20 16,5 C 16,3 C 16,5 C 90 % 1015,9 hPa 0,0 l/m 0,0 km/h (0 Bft) SO 135 10 min 0,000 mm 204 W/m 14,9 C 16,5 C 3,2 km/h (1 Bft) 100 %
15.09.2014 10:30 16,8 C 16,5 C 16,8 C 90 % 1015,8 hPa 0,0 l/m 0,0 km/h (0 Bft) SO 135 10 min 0,000 mm 241 W/m 15,1 C 16,8 C 3,2 km/h (1 Bft) 100 %
15.09.2014 10:40 17,1 C 16,5 C 17,1 C 89 % 1015,9 hPa 0,0 l/m 0,0 km/h (0 Bft) O 95 10 min 0,000 mm 225 W/m 15,3 C 17,1 C 1,6 km/h (1 Bft) 100 %
15.09.2014 10:50 17,3 C 17,1 C 17,3 C 89 % 1015,9 hPa 0,0 l/m 0,4 km/h (0 Bft) N-NW 338 10 min 0,000 mm 278 W/m 15,5 C 17,3 C 4,8 km/h (1 Bft) 100 %
15.09.2014 11:00 17,4 C 17,3 C 17,4 C 88 % 1016,1 hPa 0,0 l/m 1,2 km/h (1 Bft) SO 144 10 min 0,127 mm 269 W/m 15,4 C 17,4 C 8,0 km/h (2 Bft) 100 %
15.09.2014 11:10 17,7 C 17,4 C 17,7 C 88 % 1016,0 hPa 0,0 l/m 0,4 km/h (0 Bft) O 83 10 min 0,000 mm 304 W/m 15,7 C 17,7 C 6,4 km/h (2 Bft) 100 %
15.09.2014 11:20 18,1 C 17,7 C 18,1 C 87 % 1015,9 hPa 0,0 l/m 0,4 km/h (0 Bft) W-NW 284 10 min 0,000 mm 348 W/m 15,9 C 18,1 C 4,8 km/h (1 Bft) 100 %
15.09.2014 11:30 18,3 C 18,1 C 18,3 C 85 % 1016,0 hPa 0,0 l/m 0,4 km/h (0 Bft) O-SO 123 10 min 0,000 mm 308 W/m 15,7 C 18,3 C 8,0 km/h (2 Bft) 100 %
15.09.2014 11:40 18,4 C 18,3 C 18,4 C 85 % 1016,0 hPa 0,0 l/m 2,3 km/h (1 Bft) NO 34 10 min 0,000 mm 285 W/m 15,8 C 18,4 C 9,7 km/h (2 Bft) 100 %
15.09.2014 11:50 18,4 C 18,4 C 18,4 C 86 % 1016,0 hPa 0,0 l/m 2,2 km/h (1 Bft) O 99 10 min 0,000 mm 279 W/m 16,0 C 18,4 C 12,9 km/h (3 Bft) 100 %
15.09.2014 12:00 18,6 C 18,4 C 18,6 C 85 % 1015,8 hPa 0,0 l/m 0,2 km/h (0 Bft) O 96 10 min 0,000 mm 330 W/m 16,0 C 18,6 C 6,4 km/h (2 Bft) 100 %
15.09.2014 12:10 18,9 C 18,6 C 18,9 C 84 % 1015,7 hPa 0,0 l/m 0,5 km/h (0 Bft) O 80 10 min 0,178 mm 462 W/m 16,1 C 18,9 C 4,8 km/h (1 Bft) 100 %
15.09.2014 12:20 19,2 C 18,9 C 19,2 C 83 % 1015,7 hPa 0,0 l/m 3,3 km/h (1 Bft) O-SO 117 10 min 0,000 mm 534 W/m 16,2 C 19,2 C 9,7 km/h (2 Bft) 100 %
15.09.2014 12:30 19,3 C 19,2 C 19,3 C 80 % 1015,7 hPa 0,0 l/m 1,8 km/h (1 Bft) N 5 10 min 0,000 mm 387 W/m 15,8 C 19,3 C 12,9 km/h (3 Bft) 100 %
15.09.2014 12:40 19,5 C 19,3 C 19,5 C 79 % 1015,6 hPa 0,0 l/m 2,2 km/h (1 Bft) O-SO 104 10 min 0,000 mm 459 W/m 15,8 C 19,5 C 11,3 km/h (2 Bft) 100 %
15.09.2014 12:50 19,6 C 19,5 C 19,6 C 79 % 1015,5 hPa 0,0 l/m 1,5 km/h (1 Bft) SO 129 10 min 0,000 mm 410 W/m 15,9 C 19,6 C 9,7 km/h (2 Bft) 100 %
15.09.2014 13:00 19,8 C 19,6 C 19,8 C 78 % 1015,4 hPa 0,0 l/m 2,8 km/h (1 Bft) O-SO 115 10 min 0,254 mm 387 W/m 15,8 C 19,8 C 11,3 km/h (2 Bft) 100 %
15.09.2014 13:10 19,8 C 19,7 C 19,9 C 78 % 1015,4 hPa 0,0 l/m 2,7 km/h (1 Bft) O-SO 111 10 min 0,000 mm 330 W/m 15,8 C 19,8 C 16,1 km/h (3 Bft) 100 %
15.09.2014 13:20 19,6 C 19,6 C 19,8 C 74 % 1015,4 hPa 0,0 l/m 2,4 km/h (1 Bft) O 81 10 min 0,000 mm 297 W/m 14,8 C 19,6 C 11,3 km/h (2 Bft) 100 %
15.09.2014 13:30 19,4 C 19,4 C 19,6 C 76 % 1015,4 hPa 0,0 l/m 1,7 km/h (1 Bft) S-SO 148 10 min 0,000 mm 156 W/m 15,1 C 19,4 C 11,3 km/h (2 Bft) 100 %
15.09.2014 13:40 19,3 C 19,3 C 19,4 C 77 % 1015,3 hPa 0,0 l/m 1,2 km/h (1 Bft) SO 124 10 min 0,000 mm 163 W/m 15,2 C 19,3 C 9,7 km/h (2 Bft) 100 %
15.09.2014 13:50 19,1 C 19,1 C 19,3 C 79 % 1015,4 hPa 0,0 l/m 1,1 km/h (1 Bft) SO 136 10 min 0,000 mm 174 W/m 15,4 C 19,1 C 9,7 km/h (2 Bft) 100 %
15.09.2014 14:00 19,0 C 19,0 C 19,1 C 79 % 1015,3 hPa 0,0 l/m 2,4 km/h (1 Bft) O 89 10 min 0,152 mm 265 W/m 15,3 C 19,0 C 11,3 km/h (2 Bft) 100 %
15.09.2014 14:10 19,1 C 19,0 C 19,1 C 78 % 1015,2 hPa 0,0 l/m 1,6 km/h (1 Bft) O-SO 117 10 min 0,000 mm 276 W/m 15,2 C 19,1 C 8,0 km/h (2 Bft) 100 %
15.09.2014 14:20 19,0 C 19,0 C 19,1 C 78 % 1015,2 hPa 0,0 l/m 2,5 km/h (1 Bft) O 84 10 min 0,000 mm 213 W/m 15,1 C 19,0 C 11,3 km/h (2 Bft) 100 %
15.09.2014 14:30 18,9 C 18,9 C 19,0 C 80 % 1015,1 hPa 0,0 l/m 1,3 km/h (1 Bft) O-NO 77 10 min 0,000 mm 162 W/m 15,4 C 18,9 C 9,7 km/h (2 Bft) 99 %
15.09.2014 14:40 18,8 C 18,8 C 18,9 C 81 % 1015,1 hPa 0,0 l/m 0,8 km/h (0 Bft) O-SO 123 10 min 0,000 mm 165 W/m 15,5 C 18,8 C 8,0 km/h (2 Bft) 100 %
15.09.2014 14:50 18,8 C 18,8 C 18,8 C 81 % 1015,0 hPa 0,0 l/m 0,9 km/h (0 Bft) O 84 10 min 0,000 mm 192 W/m 15,5 C 18,8 C 6,4 km/h (2 Bft) 100 %
15.09.2014 15:00 18,7 C 18,7 C 18,8 C 80 % 1015,0 hPa 0,0 l/m 1,7 km/h (1 Bft) SO 143 10 min 0,127 mm 202 W/m 15,2 C 18,7 C 8,0 km/h (2 Bft) 100 %
15.09.2014 15:10 18,9 C 18,7 C 18,9 C 81 % 1015,0 hPa 0,0 l/m 0,0 km/h (0 Bft) S 190 10 min 0,000 mm 202 W/m 15,6 C 18,9 C 1,6 km/h (1 Bft) 100 %
15.09.2014 15:20 19,0 C 18,9 C 19,0 C 81 % 1014,9 hPa 0,0 l/m 0,9 km/h (0 Bft) O 96 10 min 0,000 mm 183 W/m 15,7 C 19,0 C 8,0 km/h (2 Bft) 100 %
15.09.2014 15:30 19,1 C 19,0 C 19,1 C 81 % 1014,8 hPa 0,0 l/m 1,1 km/h (1 Bft) SO 131 10 min 0,000 mm 181 W/m 15,8 C 19,1 C 6,4 km/h (2 Bft) 100 %
15.09.2014 15:40 19,1 C 19,1 C 19,2 C 79 % 1014,8 hPa 0,0 l/m 1,1 km/h (1 Bft) O-SO 113 10 min 0,000 mm 199 W/m 15,4 C 19,1 C 8,0 km/h (2 Bft) 100 %
15.09.2014 15:50 19,2 C 19,1 C 19,2 C 80 % 1014,8 hPa 0,0 l/m 0,3 km/h (0 Bft) W-SW 246 10 min 0,000 mm 183 W/m 15,7 C 19,2 C 6,4 km/h (2 Bft) 100 %
15.09.2014 16:00 19,3 C 19,2 C 19,3 C 80 % 1014,8 hPa 0,0 l/m 0,0 km/h (0 Bft) O-NO 73 10 min 0,102 mm 179 W/m 15,8 C 19,3 C 1,6 km/h (1 Bft) 100 %
15.09.2014 16:10 19,3 C 19,3 C 19,3 C 80 % 1014,7 hPa 0,0 l/m 0,3 km/h (0 Bft) O 89 10 min 0,000 mm 185 W/m 15,8 C 19,3 C 4,8 km/h (1 Bft) 100 %
15.09.2014 16:20 19,3 C 19,3 C 19,4 C 80 % 1014,7 hPa 0,0 l/m 0,8 km/h (0 Bft) O-SO 112 10 min 0,000 mm 156 W/m 15,8 C 19,3 C 6,4 km/h (2 Bft) 100 %
15.09.2014 16:30 19,3 C 19,3 C 19,3 C 80 % 1014,6 hPa 0,0 l/m 0,2 km/h (0 Bft) N-NO 14 0 min 0,000 mm 121 W/m 15,8 C 19,3 C 4,8 km/h (1 Bft) 100 %
15.09.2014 16:40 19,2 C 19,2 C 19,3 C 81 % 1014,6 hPa 0,0 l/m 0,8 km/h (0 Bft) O 96 0 min 0,000 mm 91 W/m 15,9 C 19,2 C 4,8 km/h (1 Bft) 100 %
15.09.2014 16:50 19,1 C 19,1 C 19,2 C 82 % 1014,6 hPa 0,0 l/m 0,0 km/h (0 Bft) O 94 0 min 0,000 mm 76 W/m 16,0 C 19,1 C 1,6 km/h (1 Bft) 100 %
15.09.2014 17:00 18,9 C 18,9 C 19,1 C 82 % 1014,7 hPa 0,0 l/m 0,0 km/h (0 Bft) O 94 0 min 0,076 mm 72 W/m 15,8 C 18,9 C 0,0 km/h (0 Bft) 100 %
15.09.2014 17:10 18,8 C 18,8 C 18,9 C 83 % 1014,6 hPa 0,0 l/m 0,0 km/h (0 Bft) O 94 0 min 0,000 mm 65 W/m 15,8 C 18,8 C 1,6 km/h (1 Bft) 100 %
15.09.2014 17:20 18,7 C 18,7 C 18,8 C 83 % 1014,5 hPa 0,0 l/m 0,2 km/h (0 Bft) O-NO 76 0 min 0,000 mm 54 W/m 15,8 C 18,7 C 3,2 km/h (1 Bft) 99 %
15.09.2014 17:30 18,6 C 18,6 C 18,7 C 82 % 1014,4 hPa 0,0 l/m 0,2 km/h (0 Bft) NO 51 0 min 0,000 mm 65 W/m 15,5 C 18,6 C 6,4 km/h (2 Bft) 100 %
15.09.2014 17:40 18,5 C 18,5 C 18,6 C 84 % 1014,3 hPa 0,0 l/m 0,0 km/h (0 Bft) NO 50 0 min 0,000 mm 77 W/m 15,7 C 18,5 C 1,6 km/h (1 Bft) 100 %
15.09.2014 17:50 18,4 C 18,4 C 18,5 C 85 % 1014,3 hPa 0,0 l/m 0,2 km/h (0 Bft) O 99 0 min 0,000 mm 76 W/m 15,8 C 18,4 C 3,2 km/h (1 Bft) 100 %
15.09.2014 18:00 18,4 C 18,4 C 18,4 C 85 % 1014,2 hPa 0,0 l/m 0,3 km/h (0 Bft) SO 130 0 min 0,051 mm 79 W/m 15,8 C 18,4 C 4,8 km/h (1 Bft) 100 %
15.09.2014 18:10 18,4 C 18,4 C 18,4 C 84 % 1014,3 hPa 0,0 l/m 0,3 km/h (0 Bft) O-SO 106 0 min 0,000 mm 62 W/m 15,6 C 18,4 C 4,8 km/h (1 Bft) 100 %
15.09.2014 18:20 18,3 C 18,3 C 18,4 C 84 % 1014,2 hPa 0,0 l/m 0,0 km/h (0 Bft) O 94 0 min 0,000 mm 51 W/m 15,5 C 18,3 C 1,6 km/h (1 Bft) 100 %
15.09.2014 18:30 18,3 C 18,3 C 18,3 C 85 % 1014,2 hPa 0,0 l/m 0,1 km/h (0 Bft) O-NO 74 0 min 0,000 mm 35 W/m 15,7 C 18,3 C 4,8 km/h (1 Bft) 100 %
15.09.2014 18:40 18,1 C 18,1 C 18,3 C 85 % 1014,2 hPa 0,0 l/m 0,0 km/h (0 Bft) NO 50 0 min 0,000 mm 25 W/m 15,5 C 18,1 C 1,6 km/h (1 Bft) 100 %
15.09.2014 18:50 18,0 C 18,0 C 18,2 C 85 % 1014,2 hPa 0,0 l/m 0,3 km/h (0 Bft) O 83 0 min 0,000 mm 21 W/m 15,4 C 18,0 C 4,8 km/h (1 Bft) 100 %
15.09.2014 19:00 17,8 C 17,8 C 18,0 C 85 % 1014,3 hPa 0,0 l/m 0,0 km/h (0 Bft) O-NO 69 0 min 0,025 mm 11 W/m 15,2 C 17,8 C 1,6 km/h (1 Bft) 100 %
15.09.2014 19:10 17,7 C 17,7 C 17,9 C 86 % 1014,2 hPa 0,0 l/m 0,6 km/h (0 Bft) O 87 0 min 0,000 mm 5 W/m 15,3 C 17,7 C 4,8 km/h (1 Bft) 100 %
15.09.2014 19:20 17,6 C 17,6 C 17,7 C 86 % 1014,3 hPa 0,0 l/m 0,1 km/h (0 Bft) S 189 0 min 0,000 mm 5 W/m 15,2 C 17,6 C 3,2 km/h (1 Bft) 100 %
15.09.2014 19:30 17,4 C 17,4 C 17,6 C 86 % 1014,4 hPa 0,0 l/m 0,2 km/h (0 Bft) O-SO 111 0 min 0,000 mm 0 W/m 15,0 C 17,4 C 3,2 km/h (1 Bft) 100 %
15.09.2014 19:40 17,3 C 17,3 C 17,4 C 87 % 1014,4 hPa 0,0 l/m 0,3 km/h (0 Bft) NO 55 0 min 0,000 mm 0 W/m 15,1 C 17,3 C 4,8 km/h (1 Bft) 100 %
15.09.2014 19:50 17,2 C 17,2 C 17,3 C 86 % 1014,4 hPa 0,0 l/m 0,5 km/h (0 Bft) NW 323 0 min 0,000 mm 0 W/m 14,8 C 17,2 C 6,4 km/h (2 Bft) 99 %
15.09.2014 20:00 17,2 C 17,2 C 17,2 C 86 % 1014,5 hPa 0,0 l/m 0,0 km/h (0 Bft) NO 38 0 min 0,000 mm 0 W/m 14,8 C 17,2 C 1,6 km/h (1 Bft) 100 %
15.09.2014 20:10 17,1 C 17,1 C 17,2 C 87 % 1014,5 hPa 0,0 l/m 0,1 km/h (0 Bft) O-SO 118 0 min 0,000 mm 0 W/m 14,9 C 17,1 C 1,6 km/h (1 Bft) 100 %
15.09.2014 20:20 16,9 C 16,9 C 17,1 C 87 % 1014,5 hPa 0,0 l/m 0,4 km/h (0 Bft) O 84 0 min 0,000 mm 0 W/m 14,7 C 16,9 C 6,4 km/h (2 Bft) 100 %
15.09.2014 20:30 16,8 C 16,8 C 16,9 C 87 % 1014,7 hPa 0,0 l/m 0,0 km/h (0 Bft) O-SO 120 0 min 0,000 mm 0 W/m 14,6 C 16,8 C 1,6 km/h (1 Bft) 100 %
15.09.2014 20:40 16,7 C 16,7 C 16,8 C 87 % 1014,7 hPa 0,0 l/m 0,2 km/h (0 Bft) O-NO 64 0 min 0,000 mm 0 W/m 14,5 C 16,7 C 4,8 km/h (1 Bft) 100 %
15.09.2014 20:50 16,6 C 16,6 C 16,7 C 87 % 1014,7 hPa 0,0 l/m 0,1 km/h (0 Bft) NO 36 0 min 0,000 mm 0 W/m 14,4 C 16,6 C 3,2 km/h (1 Bft) 100 %
15.09.2014 21:00 16,6 C 16,6 C 16,7 C 87 % 1014,7 hPa 0,0 l/m 0,5 km/h (0 Bft) O-SO 114 0 min 0,000 mm 0 W/m 14,4 C 16,6 C 4,8 km/h (1 Bft) 100 %
15.09.2014 21:10 16,6 C 16,6 C 16,6 C 87 % 1014,7 hPa 0,0 l/m 0,0 km/h (0 Bft) SO 135 0 min 0,000 mm 0 W/m 14,4 C 16,6 C 4,8 km/h (1 Bft) 100 %
15.09.2014 21:20 16,4 C 16,4 C 16,6 C 87 % 1014,8 hPa 0,0 l/m 0,0 km/h (0 Bft) O-SO 112 0 min 0,000 mm 0 W/m 14,2 C 16,4 C 4,8 km/h (1 Bft) 100 %
15.09.2014 21:30 16,3 C 16,3 C 16,5 C 87 % 1014,8 hPa 0,0 l/m 0,0 km/h (0 Bft) O-SO 112 0 min 0,000 mm 0 W/m 14,1 C 16,3 C 9,7 km/h (2 Bft) 100 %
15.09.2014 21:40 16,2 C 16,2 C 16,3 C 87 % 1014,8 hPa 0,0 l/m 0,0 km/h (0 Bft) SO 135 0 min 0,000 mm 0 W/m 14,0 C 16,2 C 3,2 km/h (1 Bft) 100 %
15.09.2014 21:50 15,9 C 15,9 C 16,2 C 87 % 1014,8 hPa 0,0 l/m 0,0 km/h (0 Bft) O 90 0 min 0,000 mm 0 W/m 13,7 C 15,9 C 6,4 km/h (2 Bft) 100 %
15.09.2014 22:00 15,8 C 15,8 C 15,9 C 88 % 1014,8 hPa 0,0 l/m 0,0 km/h (0 Bft) O-NO 67 0 min 0,000 mm 0 W/m 13,8 C 15,8 C 6,4 km/h (2 Bft) 100 %
15.09.2014 22:10 15,7 C 15,7 C 15,8 C 88 % 1014,8 hPa 0,0 l/m 0,0 km/h (0 Bft) SO 135 0 min 0,000 mm 0 W/m 13,7 C 15,7 C 4,8 km/h (1 Bft) 100 %
15.09.2014 22:20 15,6 C 15,6 C 15,7 C 88 % 1014,8 hPa 0,0 l/m 0,0 km/h (0 Bft) O-SO 112 0 min 0,000 mm 0 W/m 13,6 C 15,6 C 3,2 km/h (1 Bft) 100 %
15.09.2014 22:30 15,4 C 15,4 C 15,6 C 89 % 1014,8 hPa 0,0 l/m 0,0 km/h (0 Bft) O-SO 112 0 min 0,000 mm 0 W/m 13,6 C 15,4 C 1,6 km/h (1 Bft) 100 %
15.09.2014 22:40 15,3 C 15,3 C 15,4 C 89 % 1014,8 hPa 0,0 l/m 0,0 km/h (0 Bft) O-SO 112 0 min 0,000 mm 0 W/m 13,5 C 15,3 C 1,6 km/h (1 Bft) 100 %
15.09.2014 22:50 15,1 C 15,1 C 15,3 C 89 % 1014,7 hPa 0,0 l/m 0,0 km/h (0 Bft) N 0 0 min 0,000 mm 0 W/m 13,3 C 15,1 C 0,0 km/h (0 Bft) 100 %
15.09.2014 23:00 15,1 C 15,1 C 15,1 C 89 % 1014,7 hPa 0,0 l/m 0,0 km/h (0 Bft) N 0 0 min 0,000 mm 0 W/m 13,3 C 15,1 C 0,0 km/h (0 Bft) 100 %
15.09.2014 23:10 14,9 C 14,9 C 15,1 C 89 % 1014,8 hPa 0,0 l/m 0,0 km/h (0 Bft) O-NO 67 0 min 0,000 mm 0 W/m 13,1 C 14,9 C 4,8 km/h (1 Bft) 100 %
15.09.2014 23:20 14,6 C 14,6 C 14,9 C 89 % 1014,9 hPa 0,0 l/m 0,0 km/h (0 Bft) NO 45 0 min 0,000 mm 0 W/m 12,8 C 14,6 C 3,2 km/h (1 Bft) 100 %
15.09.2014 23:30 14,3 C 14,3 C 14,6 C 90 % 1014,8 hPa 0,0 l/m 0,0 km/h (0 Bft) NO 45 0 min 0,000 mm 0 W/m 12,7 C 14,3 C 3,2 km/h (1 Bft) 100 %
15.09.2014 23:40 14,1 C 14,1 C 14,3 C 90 % 1014,9 hPa 0,0 l/m 0,0 km/h (0 Bft) NO 45 0 min 0,000 mm 0 W/m 12,5 C 14,1 C 1,6 km/h (1 Bft) 100 %
15.09.2014 23:50 13,8 C 13,8 C 14,1 C 90 % 1014,8 hPa 0,0 l/m 0,0 km/h (0 Bft) N 0 0 min 0,000 mm 0 W/m 12,2 C 13,8 C 0,0 km/h (0 Bft) 100 %
_ Min-Zeit 00:30 00:30 00:40 13:20 18:00 - 00:00 - - - - - 00:30 00:30 00:00 02:00
Minimum _ 12,5 C 12,5 C 12,6 C 74 % 1014,2 hPa - 0,0 km/h (0 Bft) - - - - - 10,9 C 12,5 C 0,0 km/h (0 Bft) 89 %
_ Max-Zeit 13:10 13:10 13:10 00:00 00:00 00:00 12:20 - - 10:20 13:00 12:20 12:20 13:00 13:10 00:00
Maximum _ 19,9 C 19,7 C 19,9 C 90 % 1016,5 hPa 0,0 l/m 3,3 km/h
O-SO (1 Bft)
- - 10 min 0,254 mm 534 W/m 16,2 C 19,8 C 16,1 km/h
O-SO (3 Bft)
100 %
Durchschnitt _ 16,2 C 16,1 C 16,2 C 87 % 1015,3 hPa #0,0 l/m 0,4 km/h (0 Bft) O-SO - #6:10 h #1,168 mm 164 W/m 13,9 C 16,2 C 4,0 km/h (1 Bft) 100 %
PRIVATE WETTERSTATION BILLIGHEIM-ALLFELD - www.neckar-odenwald-wetter.de - Holger Sonntag